x

Gulf Of Maine - 78 Nm East Of Portsmouth, Nh (44005) Wave Buoy

11:50am - Sun 23rd Nov 2014 All times are EST. -5 hours from GMT.

  • Sig Wave height 6.9ft
  • Peak Period 7s
  • Average Period 5s
  • Wind
    20mph, 27mph gusts
  • Sea Temp 51°f
  • 空気 Temp 50°f
  • Sea Pressure 1017.8mb
  • Gulf Of Maine - 78 Nm East Of Portsmouth, Nh
  • Gulf Of Maine - 78 Nm East Of Portsmouth, Nh

More Historic Weather Station data

Upgrade to MSW Pro to gain access to the past 30 days of data for over 8000 Wavebouys and Weather Stations around the globe.

Join Pro

Comparision Forecast

View Surf forecast
   
Sun 11/23 11:50am 7ft 7s 5s 20 27 mph 1017.8mb 51f 50f
10:50am  -   -   -  25 29 mph 1018.1mb 51f 50f
9:50am 7ft 6s 5s 25 29 mph 1018.2mb 51f 50f
8:50am  -   -   -  22 27 mph 1017.7mb 51f 50f
7:50am 8ft 8s 6s 25 31 mph 1017.2mb 51f 49f
6:50am 8.5ft 8s 6s 25 29 mph 1016.6mb 51f 48f
5:50am 10ft 8s 6s 29 34 mph 1015.6mb 51f 47f
4:50am 10ft 8s 6s 31 36 mph 1015.3mb 51f 48f
3:50am 10ft 8s 6s 31 36 mph 1014.8mb 51f 48f
2:50am 10ft 8s 6s 29 34 mph 1014.9mb 51f 47f
1:50am 11.5ft 8s 6s 31 36 mph 1014.8mb 51f 47f
12:50am 13ft 8s 7s 31 38 mph 1014.5mb 51f 47f
Sat 11/22 11:50pm 12ft 8s 6s 34 40 mph 1014.5mb 51f 47f
10:50pm 12ft 8s 6s 34 40 mph 1014.3mb 51f 47f
9:50pm 11ft 8s 6s 36 40 mph 1014.4mb 51f 46f
8:50pm 10ft 8s 6s 31 38 mph 1015.3mb 51f 46f
7:50pm 10ft 8s 6s 29 36 mph 1015.9mb 51f 45f
6:50pm 9ft 7s 5s 29 38 mph 1016.8mb 51f 46f
5:50pm 9ft 7s 6s 27 34 mph 1017.2mb 51f 46f
4:50pm 8.5ft 7s 5s 31 38 mph 1017.5mb 51f 45f
3:50pm 8.5ft 7s 5s 29 36 mph 1018.5mb 51f 44f
2:50pm 8.5ft 7s 5s 31 40 mph 1019mb 51f 43f
1:50pm 7ft 6s 5s 29 34 mph 1020.3mb 51f 41f
12:50pm 7ft 6s 5s 29 36 mph 1021mb 51f 39f
11:50am 6ft 6s 5s 27 34 mph 1022.7mb 50f 38f
10:50am 5ft 6s 5s 25 31 mph 1024.6mb 50f 36f
9:50am 5ft 6s 5s 22 29 mph 1026.2mb 50f 35f
8:50am 4.5ft 6s 5s 20 25 mph 1026.6mb 50f 34f
7:50am 4.5ft 6s 5s 18 22 mph 1027.1mb 50f 33f
6:50am  -   -   -  18 22 mph 1027.3mb 50f 32f
5:50am 4ft 6s 4s 18 22 mph 1027.2mb 50f 32f
4:50am  -   -   -  16 22 mph 1027.4mb 50f 31f
3:50am  -   -   -  16 22 mph 1027.5mb 50f 31f
2:50am 5.5ft 6s 5s 16 25 mph 1027.6mb 50f 31f
1:50am 6.5ft 6s 5s 18 27 mph 1027.2mb 50f 31f
12:50am 6ft 6s 5s 25 34 mph 1026.6mb 50f 31f
Fri 11/21 11:50pm  -   -   -  22 29 mph 1026mb 50f 31f
10:50pm 7ft 6s 5s 22 29 mph 1025.3mb 50f 32f
8:50pm 8ft 7s 5s 27 34 mph 1024.4mb 50f 33f
6:50pm 7.5ft 6s 5s 29 36 mph 1022.9mb 50f 34f
5:50pm 8ft 7s 5s 27 36 mph 1022.1mb 50f 34f
4:50pm 8ft 7s 5s 29 38 mph 1020.7mb 50f 34f
3:50pm  -   -   -  27 36 mph 1019.6mb 50f 34f
2:50pm 7.5ft 7s 5s 31 38 mph 1017.9mb 50f 34f
1:50pm 7.5ft 6s 5s 29 36 mph 1016.4mb 50f 35f
12:50pm 7ft 6s 5s 29 38 mph 1015.5mb 51f 35f
11:50am 7.5ft 7s 5s 27 34 mph 1015mb 51f 34f
10:50am  -   -   -  29 38 mph 1014.4mb 51f 34f
9:50am 8ft 7s 5s 25 36 mph 1014.4mb 51f 34f
7:50am 8ft 6s 5s 27 36 mph 1012.9mb 51f 34f
6:50am  -   -   -  27 34 mph 1012.2mb 51f 34f
5:50am 8ft 6s 5s 27 34 mph 1011.6mb 51f 34f
4:50am 8ft 6s 5s 29 34 mph 1010.7mb 51f 35f
3:50am 7ft 6s 5s 25 34 mph 1010.4mb 51f 37f
2:50am  -   -   -  22 29 mph 1010.3mb 51f 37f
1:50am 7ft 6s 5s 27 31 mph 1010.2mb 51f 37f
12:50am 7ft 7s 5s 27 34 mph 1009.8mb 51f 38f
Thu 11/20 11:50pm 8ft 6s 5s 25 34 mph 1010.2mb 51f 38f
10:50pm 7.5ft 7s 5s 25 31 mph 1009.9mb 51f 39f
9:50pm 7.5ft 6s 5s 27 31 mph 1009.5mb 51f 40f
8:50pm 6.5ft 5s 5s 22 29 mph 1009.6mb 51f 40f
7:50pm 6ft 6s 5s 22 29 mph 1009mb 51f 41f
6:50pm  -   -   -  25
mph
1007.8mb - 44f
5:50pm 6ft 6s 5s 22 29 mph 1006.9mb 51f 45f
4:50pm 7ft 6s 5s 20 27 mph 1006.6mb 51f 46f
3:50pm 7.5ft 6s 5s 25 29 mph 1006.3mb 51f 46f
2:50pm 6.5ft 7s 5s 27 34 mph 1006.6mb 51f 46f
1:50pm 7ft 7s 5s 22 29 mph 1007.2mb 51f 46f
12:50pm 7ft 7s 5s 25 29 mph 1007.6mb 51f 45f
11:50am 7ft 7s 5s 25 31 mph 1008.4mb 51f 45f
10:50am 8ft 7s 6s 25 29 mph 1009.6mb 51f 45f
9:50am 9ft 8s 6s 25 31 mph 1010.7mb 51f 44f
8:50am 8ft 7s 6s 27 34 mph 1011.3mb 51f 44f
7:50am 8ft 7s 5s 27 34 mph 1011.8mb 51f 43f
6:50am 8ft 7s 6s 27 31 mph 1012mb 51f 42f
5:50am 8ft 7s 6s 27 34 mph 1012.5mb 51f 42f
4:50am 9ft 7s 6s 29 38 mph 1013.3mb 51f 42f
3:50am 8.5ft 8s 6s 29 34 mph 1014.2mb 51f 41f
2:50am 8ft 7s 5s 34 40 mph 1015.2mb 51f 40f
1:50am 8.5ft 7s 6s 27 34 mph 1016mb 51f 40f
12:50am 7ft 6s 5s 29 36 mph 1016.3mb 51f 40f
Wed 11/19 11:50pm 7ft 6s 5s 29 36 mph 1017.2mb 51f 39f
10:50pm 5ft 5s 5s 25 29 mph 1017.5mb 51f 39f
9:50pm 5ft 5s 5s 25 31 mph 1017.9mb 51f 39f
8:50pm 4.5ft 10s 4s 22 27 mph 1018mb 51f 39f
7:50pm 4.5ft 10s 5s 20 25 mph 1018.2mb 51f 39f
6:50pm 4.5ft 11s 5s 22 29 mph 1018.7mb 51f 39f
5:50pm 4ft 11s 5s 18 25 mph 1019mb 51f 38f